sensor_id;sensor_type;location;lat;lon;timestamp;pressure;altitude;pressure_sealevel;temperature;humidity
72110;BME280;59983;52.010;5.420;2022-10-16T00:01:04;101018.78;;;12.98;85.69
72110;BME280;59983;52.010;5.420;2022-10-16T00:03:31;101018.78;;;12.98;85.56
72110;BME280;59983;52.010;5.420;2022-10-16T00:05:59;101029.69;;;12.98;85.81
72110;BME280;59983;52.010;5.420;2022-10-16T00:08:27;101028.47;;;12.96;86.08
72110;BME280;59983;52.010;5.420;2022-10-16T00:11:02;101029.97;;;12.93;86.11
72110;BME280;59983;52.010;5.420;2022-10-16T00:13:30;101026.47;;;12.93;86.25
72110;BME280;59983;52.010;5.420;2022-10-16T00:15:58;101030.34;;;12.92;86.50
72110;BME280;59983;52.010;5.420;2022-10-16T00:18:25;101029.53;;;12.91;86.54
72110;BME280;59983;52.010;5.420;2022-10-16T00:20:52;101024.53;;;12.93;86.55
72110;BME280;59983;52.010;5.420;2022-10-16T00:23:19;101033.84;;;12.92;86.31
72110;BME280;59983;52.010;5.420;2022-10-16T00:25:58;101023.38;;;12.94;86.59
72110;BME280;59983;52.010;5.420;2022-10-16T00:28:25;101030.41;;;12.95;86.69
72110;BME280;59983;52.010;5.420;2022-10-16T00:30:52;101026.09;;;12.94;86.74
72110;BME280;59983;52.010;5.420;2022-10-16T00:33:19;101024.94;;;12.95;87.00
72110;BME280;59983;52.010;5.420;2022-10-16T00:35:46;101022.66;;;12.97;87.00
72110;BME280;59983;52.010;5.420;2022-10-16T00:38:12;101028.47;;;12.96;87.04
72110;BME280;59983;52.010;5.420;2022-10-16T00:40:39;101020.72;;;12.98;87.07
72110;BME280;59983;52.010;5.420;2022-10-16T00:43:58;101017.66;;;12.99;87.14
72110;BME280;59983;52.010;5.420;2022-10-16T00:46:00;101015.72;;;13.00;87.08
72110;BME280;59983;52.010;5.420;2022-10-16T00:48:27;101024.75;;;13.04;87.30
72110;BME280;59983;52.010;5.420;2022-10-16T00:50:54;101020.44;;;13.03;87.26
72110;BME280;59983;52.010;5.420;2022-10-16T00:53:23;101030.97;;;13.04;87.32
72110;BME280;59983;52.010;5.420;2022-10-16T00:55:51;101023.22;;;13.07;87.26
72110;BME280;59983;52.010;5.420;2022-10-16T00:58:18;101033.00;;;13.08;87.31
72110;BME280;59983;52.010;5.420;2022-10-16T01:00:44;101029.56;;;13.11;87.47
72110;BME280;59983;52.010;5.420;2022-10-16T01:03:31;101039.31;;;13.12;87.68
72110;BME280;59983;52.010;5.420;2022-10-16T01:06:32;101033.84;;;13.12;87.58
72110;BME280;59983;52.010;5.420;2022-10-16T01:14:22;101032.44;;;13.18;87.78
72110;BME280;59983;52.010;5.420;2022-10-16T01:16:58;101029.72;;;13.18;87.56
72110;BME280;59983;52.010;5.420;2022-10-16T01:19:40;101032.09;;;13.19;87.70
72110;BME280;59983;52.010;5.420;2022-10-16T01:22:10;101034.47;;;13.21;87.55
72110;BME280;59983;52.010;5.420;2022-10-16T01:35:09;101040.34;;;13.23;87.91
72110;BME280;59983;52.010;5.420;2022-10-16T01:37:46;101036.13;;;13.25;88.00
72110;BME280;59983;52.010;5.420;2022-10-16T01:40:16;101031.81;;;13.24;87.98
72110;BME280;59983;52.010;5.420;2022-10-16T01:42:55;101020.91;;;13.24;87.82
72110;BME280;59983;52.010;5.420;2022-10-16T01:45:28;101024.41;;;13.25;88.00
72110;BME280;59983;52.010;5.420;2022-10-16T01:47:58;101030.69;;;13.25;87.99
72110;BME280;59983;52.010;5.420;2022-10-16T01:50:27;101019.78;;;13.25;87.85
72110;BME280;59983;52.010;5.420;2022-10-16T01:52:56;101018.63;;;13.26;87.96
72110;BME280;59983;52.010;5.420;2022-10-16T01:55:29;101019.34;;;13.23;88.03
72110;BME280;59983;52.010;5.420;2022-10-16T01:57:57;101022.44;;;13.22;88.22
72110;BME280;59983;52.010;5.420;2022-10-16T02:00:26;101013.47;;;13.21;88.52
72110;BME280;59983;52.010;5.420;2022-10-16T02:02:53;101005.28;;;13.21;88.68
72110;BME280;59983;52.010;5.420;2022-10-16T02:05:29;101006.88;;;13.22;88.57
72110;BME280;59983;52.010;5.420;2022-10-16T02:07:57;101025.16;;;13.22;88.63
72110;BME280;59983;52.010;5.420;2022-10-16T02:10:28;101029.38;;;13.19;88.74
72110;BME280;59983;52.010;5.420;2022-10-16T02:13:26;101040.28;;;13.19;88.79
72110;BME280;59983;52.010;5.420;2022-10-16T02:15:49;101035.94;;;13.18;88.79
72110;BME280;59983;52.010;5.420;2022-10-16T02:18:16;101031.28;;;13.19;88.79
72110;BME280;59983;52.010;5.420;2022-10-16T02:26:45;101043.25;;;13.14;89.19
72110;BME280;59983;52.010;5.420;2022-10-16T02:29:18;101036.59;;;13.12;89.28
72110;BME280;59983;52.010;5.420;2022-10-16T02:31:50;101035.78;;;13.11;89.38
72110;BME280;59983;52.010;5.420;2022-10-16T02:34:20;101035.78;;;13.11;89.51
72110;BME280;59983;52.010;5.420;2022-10-16T02:36:49;101043.19;;;13.11;89.57
72110;BME280;59983;52.010;5.420;2022-10-16T02:39:17;101043.19;;;13.11;89.53
72110;BME280;59983;52.010;5.420;2022-10-16T02:41:44;101040.81;;;13.09;89.67
72110;BME280;59983;52.010;5.420;2022-10-16T02:44:10;101044.69;;;13.08;89.76
72110;BME280;59983;52.010;5.420;2022-10-16T02:46:37;101041.09;;;13.04;89.93
72110;BME280;59983;52.010;5.420;2022-10-16T02:49:03;101038.38;;;13.04;90.08
72110;BME280;59983;52.010;5.420;2022-10-16T02:51:30;101042.22;;;13.03;90.14
72110;BME280;59983;52.010;5.420;2022-10-16T02:53:56;101047.25;;;13.01;90.07
72110;BME280;59983;52.010;5.420;2022-10-16T02:56:23;101050.34;;;12.99;90.12
72110;BME280;59983;52.010;5.420;2022-10-16T02:58:50;101055.00;;;12.99;90.23
72110;BME280;59983;52.010;5.420;2022-10-16T03:01:16;101047.53;;;12.96;90.33
72110;BME280;59983;52.010;5.420;2022-10-16T03:03:43;101044.72;;;12.92;90.46
72110;BME280;59983;52.010;5.420;2022-10-16T03:06:09;101040.44;;;12.91;90.68
72110;BME280;59983;52.010;5.420;2022-10-16T03:08:36;101038.06;;;12.90;90.73
72110;BME280;59983;52.010;5.420;2022-10-16T03:11:02;101043.06;;;12.88;90.86
72110;BME280;59983;52.010;5.420;2022-10-16T03:13:29;101029.09;;;12.89;90.91
72110;BME280;59983;52.010;5.420;2022-10-16T03:15:55;101037.72;;;12.91;90.89
72110;BME280;59983;52.010;5.420;2022-10-16T03:18:22;101043.50;;;12.90;90.83
72110;BME280;59983;52.010;5.420;2022-10-16T03:20:48;101053.59;;;12.89;90.83
72110;BME280;59983;52.010;5.420;2022-10-16T03:23:15;101049.28;;;12.88;90.90
72110;BME280;59983;52.010;5.420;2022-10-16T03:25:41;101045.78;;;12.88;91.03
72110;BME280;59983;52.010;5.420;2022-10-16T03:28:08;101052.00;;;12.88;91.03
72110;BME280;59983;52.010;5.420;2022-10-16T03:30:34;101047.72;;;12.87;91.05
72110;BME280;59983;52.010;5.420;2022-10-16T03:33:01;101044.22;;;12.87;91.12
72110;BME280;59983;52.010;5.420;2022-10-16T03:35:27;101060.19;;;12.88;91.22
72110;BME280;59983;52.010;5.420;2022-10-16T03:37:54;101060.91;;;12.85;91.27
72110;BME280;59983;52.010;5.420;2022-10-16T03:40:20;101060.53;;;12.87;91.26
72110;BME280;59983;52.010;5.420;2022-10-16T03:42:47;101062.47;;;12.86;91.26
72110;BME280;59983;52.010;5.420;2022-10-16T03:45:13;101075.31;;;12.86;91.43
72110;BME280;59983;52.010;5.420;2022-10-16T03:47:40;101069.78;;;12.82;91.39
72110;BME280;59983;52.010;5.420;2022-10-16T03:50:07;101068.63;;;12.83;91.49
72110;BME280;59983;52.010;5.420;2022-10-16T03:52:34;101069.78;;;12.82;91.28
72110;BME280;59983;52.010;5.420;2022-10-16T03:55:01;101069.31;;;12.80;91.38
72110;BME280;59983;52.010;5.420;2022-10-16T03:57:27;101068.91;;;12.78;91.34
72110;BME280;59983;52.010;5.420;2022-10-16T03:59:54;101064.16;;;12.75;91.37
72110;BME280;59983;52.010;5.420;2022-10-16T04:02:21;101076.63;;;12.76;91.46
72110;BME280;59983;52.010;5.420;2022-10-16T04:04:47;101074.28;;;12.74;91.31
72110;BME280;59983;52.010;5.420;2022-10-16T04:07:13;101078.13;;;12.73;91.44
72110;BME280;59983;52.010;5.420;2022-10-16T04:09:40;101084.72;;;12.72;91.53
72110;BME280;59983;52.010;5.420;2022-10-16T04:12:06;101090.19;;;12.72;91.57
72110;BME280;59983;52.010;5.420;2022-10-16T04:14:33;101092.91;;;12.72;91.53
72110;BME280;59983;52.010;5.420;2022-10-16T04:17:00;101102.97;;;12.72;91.79
72110;BME280;59983;52.010;5.420;2022-10-16T04:19:26;101106.50;;;12.72;91.58
72110;BME280;59983;52.010;5.420;2022-10-16T04:21:53;101099.91;;;12.73;91.64
72110;BME280;59983;52.010;5.420;2022-10-16T04:24:19;101105.69;;;12.72;91.60
72110;BME280;59983;52.010;5.420;2022-10-16T04:26:46;101108.78;;;12.70;91.64
72110;BME280;59983;52.010;5.420;2022-10-16T04:29:12;101111.06;;;12.68;91.73
72110;BME280;59983;52.010;5.420;2022-10-16T04:31:39;101109.13;;;12.69;91.75
72110;BME280;59983;52.010;5.420;2022-10-16T04:34:05;101115.72;;;12.68;91.88
72110;BME280;59983;52.010;5.420;2022-10-16T04:36:31;101130.81;;;12.65;91.77
72110;BME280;59983;52.010;5.420;2022-10-16T04:38:58;101122.66;;;12.65;91.88
72110;BME280;59983;52.010;5.420;2022-10-16T04:41:25;101124.59;;;12.65;91.72
72110;BME280;59983;52.010;5.420;2022-10-16T04:43:51;101118.69;;;12.63;91.88
72110;BME280;59983;52.010;5.420;2022-10-16T04:46:18;101128.78;;;12.62;91.96
72110;BME280;59983;52.010;5.420;2022-10-16T04:48:44;101124.13;;;12.63;91.70
72110;BME280;59983;52.010;5.420;2022-10-16T04:51:11;101130.72;;;12.62;91.89
72110;BME280;59983;52.010;5.420;2022-10-16T04:53:37;101137.66;;;12.59;91.97
72110;BME280;59983;52.010;5.420;2022-10-16T04:56:04;101148.13;;;12.57;91.87
72110;BME280;59983;52.010;5.420;2022-10-16T04:58:30;101144.50;;;12.53;92.00
72110;BME280;59983;52.010;5.420;2022-10-16T05:00:57;101149.16;;;12.53;92.13
72110;BME280;59983;52.010;5.420;2022-10-16T05:03:23;101146.78;;;12.51;92.23
72110;BME280;59983;52.010;5.420;2022-10-16T05:05:50;101141.78;;;12.53;92.23
72110;BME280;59983;52.010;5.420;2022-10-16T05:08:16;101149.94;;;12.53;92.23
72110;BME280;59983;52.010;5.420;2022-10-16T05:10:44;101151.88;;;12.53;92.11
72110;BME280;59983;52.010;5.420;2022-10-16T05:13:11;101162.69;;;12.49;92.28
72110;BME280;59983;52.010;5.420;2022-10-16T05:15:38;101161.44;;;12.46;92.42
72110;BME280;59983;52.010;5.420;2022-10-16T05:18:04;101169.94;;;12.45;92.54
72110;BME280;59983;52.010;5.420;2022-10-16T05:20:31;101177.00;;;12.46;92.67
72110;BME280;59983;52.010;5.420;2022-10-16T05:22:57;101185.16;;;12.46;92.69
72110;BME280;59983;52.010;5.420;2022-10-16T05:25:24;101177.78;;;12.46;92.58
72110;BME280;59983;52.010;5.420;2022-10-16T05:27:50;101174.59;;;12.44;92.76
72110;BME280;59983;52.010;5.420;2022-10-16T05:30:17;101180.03;;;12.44;92.72
72110;BME280;59983;52.010;5.420;2022-10-16T05:32:48;101188.53;;;12.43;92.70
72110;BME280;59983;52.010;5.420;2022-10-16T05:35:16;101185.03;;;12.42;92.84
72110;BME280;59983;52.010;5.420;2022-10-16T05:37:42;101194.00;;;12.43;92.73
72110;BME280;59983;52.010;5.420;2022-10-16T05:40:10;101197.06;;;12.41;92.82
72110;BME280;59983;52.010;5.420;2022-10-16T05:42:36;101196.28;;;12.41;92.74
72110;BME280;59983;52.010;5.420;2022-10-16T05:45:05;101200.56;;;12.42;92.79
72110;BME280;59983;52.010;5.420;2022-10-16T05:47:31;101204.88;;;12.43;92.88
72110;BME280;59983;52.010;5.420;2022-10-16T05:49:58;101207.94;;;12.41;93.08
72110;BME280;59983;52.010;5.420;2022-10-16T05:52:24;101214.63;;;12.44;93.10
72110;BME280;59983;52.010;5.420;2022-10-16T05:54:51;101216.66;;;12.47;93.18
72110;BME280;59983;52.010;5.420;2022-10-16T05:57:17;101215.16;;;12.50;93.14
72110;BME280;59983;52.010;5.420;2022-10-16T05:59:43;101224.13;;;12.50;93.19
72110;BME280;59983;52.010;5.420;2022-10-16T06:02:13;101229.19;;;12.52;93.32
72110;BME280;59983;52.010;5.420;2022-10-16T06:04:39;101233.97;;;12.55;93.31
72110;BME280;59983;52.010;5.420;2022-10-16T06:07:06;101235.97;;;12.58;93.32
72110;BME280;59983;52.010;5.420;2022-10-16T06:09:32;101229.41;;;12.59;93.24
72110;BME280;59983;52.010;5.420;2022-10-16T06:11:59;101233.69;;;12.60;93.31
72110;BME280;59983;52.010;5.420;2022-10-16T06:14:25;101238.00;;;12.61;93.31
72110;BME280;59983;52.010;5.420;2022-10-16T06:16:52;101241.50;;;12.61;93.34
72110;BME280;59983;52.010;5.420;2022-10-16T06:19:18;101248.53;;;12.62;93.34
72110;BME280;59983;52.010;5.420;2022-10-16T06:21:45;101244.69;;;12.63;93.40
72110;BME280;59983;52.010;5.420;2022-10-16T06:24:11;101256.38;;;12.64;93.34
72110;BME280;59983;52.010;5.420;2022-10-16T06:26:38;101259.88;;;12.64;93.38
72110;BME280;59983;52.010;5.420;2022-10-16T06:29:04;101257.59;;;12.66;93.19
72110;BME280;59983;52.010;5.420;2022-10-16T06:31:31;101263.41;;;12.65;93.27
72110;BME280;59983;52.010;5.420;2022-10-16T06:34:00;101272.34;;;12.65;93.34
72110;BME280;59983;52.010;5.420;2022-10-16T06:36:26;101274.28;;;12.65;93.44
72110;BME280;59983;52.010;5.420;2022-10-16T06:38:53;101285.25;;;12.68;93.36
72110;BME280;59983;52.010;5.420;2022-10-16T06:41:21;101286.47;;;12.71;93.33
72110;BME280;59983;52.010;5.420;2022-10-16T06:43:49;101297.03;;;12.72;93.30
72110;BME280;59983;52.010;5.420;2022-10-16T06:46:17;101294.75;;;12.74;93.22
72110;BME280;59983;52.010;5.420;2022-10-16T06:48:44;101300.19;;;12.74;93.30
72110;BME280;59983;52.010;5.420;2022-10-16T06:51:13;101296.78;;;12.77;93.27
72110;BME280;59983;52.010;5.420;2022-10-16T06:53:43;101301.84;;;12.79;93.18
72110;BME280;59983;52.010;5.420;2022-10-16T06:56:28;101315.94;;;12.81;93.24
72110;BME280;59983;52.010;5.420;2022-10-16T06:58:57;101309.34;;;12.82;93.17
72110;BME280;59983;52.010;5.420;2022-10-16T07:01:24;101309.00;;;12.84;93.17
72110;BME280;59983;52.010;5.420;2022-10-16T07:03:51;101332.00;;;12.86;93.09
72110;BME280;59983;52.010;5.420;2022-10-16T07:06:20;101335.50;;;12.87;93.23
72110;BME280;59983;52.010;5.420;2022-10-16T07:08:47;101339.03;;;12.87;93.41
72110;BME280;59983;52.010;5.420;2022-10-16T07:11:20;101347.63;;;12.89;93.20
72110;BME280;59983;52.010;5.420;2022-10-16T07:13:48;101358.19;;;12.91;93.16
72110;BME280;59983;52.010;5.420;2022-10-16T07:16:22;101367.16;;;12.91;93.08
72110;BME280;59983;52.010;5.420;2022-10-16T07:18:49;101366.38;;;12.91;92.86
72110;BME280;59983;52.010;5.420;2022-10-16T07:21:21;101368.75;;;12.92;93.43
72110;BME280;59983;52.010;5.420;2022-10-16T07:23:53;101365.31;;;12.95;93.56
72110;BME280;59983;52.010;5.420;2022-10-16T07:26:20;101359.16;;;12.98;93.74
72110;BME280;59983;52.010;5.420;2022-10-16T07:28:47;101356.13;;;13.00;93.34
72110;BME280;59983;52.010;5.420;2022-10-16T07:31:15;101365.06;;;13.00;93.34
72110;BME280;59983;52.010;5.420;2022-10-16T07:33:43;101354.63;;;13.02;93.21
72110;BME280;59983;52.010;5.420;2022-10-16T07:36:12;101356.63;;;13.05;93.37
72110;BME280;59983;52.010;5.420;2022-10-16T07:38:42;101366.84;;;13.09;93.26
72110;BME280;59983;52.010;5.420;2022-10-16T07:41:11;101366.13;;;13.12;92.85
72110;BME280;59983;52.010;5.420;2022-10-16T07:43:38;101372.13;;;13.17;93.02
72110;BME280;59983;52.010;5.420;2022-10-16T07:46:05;101379.16;;;13.18;93.08
72110;BME280;59983;52.010;5.420;2022-10-16T07:48:34;101393.25;;;13.20;93.02
72110;BME280;59983;52.010;5.420;2022-10-16T07:51:04;101393.56;;;13.19;92.70
72110;BME280;59983;52.010;5.420;2022-10-16T07:53:31;101405.16;;;13.16;92.54
72110;BME280;59983;52.010;5.420;2022-10-16T07:56:02;101412.88;;;13.14;92.67
72110;BME280;59983;52.010;5.420;2022-10-16T07:58:30;101411.31;;;13.13;92.52
72110;BME280;59983;52.010;5.420;2022-10-16T08:00:57;101416.38;;;13.26;92.06
72110;BME280;59983;52.010;5.420;2022-10-16T08:03:24;101431.66;;;13.31;91.85
72110;BME280;59983;52.010;5.420;2022-10-16T08:05:51;101425.63;;;13.38;91.44
72110;BME280;59983;52.010;5.420;2022-10-16T08:08:18;101425.81;;;13.45;91.10
72110;BME280;59983;52.010;5.420;2022-10-16T08:10:45;101431.78;;;13.50;91.23
72110;BME280;59983;52.010;5.420;2022-10-16T08:13:12;101428.03;;;13.55;91.31
72110;BME280;59983;52.010;5.420;2022-10-16T08:15:42;101431.63;;;13.59;91.51
72110;BME280;59983;52.010;5.420;2022-10-16T08:18:10;101434.44;;;13.63;91.07
72110;BME280;59983;52.010;5.420;2022-10-16T08:20:37;101436.81;;;13.64;91.15
72110;BME280;59983;52.010;5.420;2022-10-16T08:23:04;101440.41;;;13.68;91.17
72110;BME280;59983;52.010;5.420;2022-10-16T08:25:34;101443.25;;;13.72;91.27
72110;BME280;59983;52.010;5.420;2022-10-16T08:28:07;101450.72;;;13.75;91.58
72110;BME280;59983;52.010;5.420;2022-10-16T08:30:34;101443.88;;;13.81;91.50
72110;BME280;59983;52.010;5.420;2022-10-16T08:33:01;101452.56;;;13.86;91.69
72110;BME280;59983;52.010;5.420;2022-10-16T08:35:28;101444.84;;;13.88;90.68
72110;BME280;59983;52.010;5.420;2022-10-16T08:37:54;101458.19;;;13.94;90.32
72110;BME280;59983;52.010;5.420;2022-10-16T08:40:28;101461.03;;;13.97;90.32
72110;BME280;59983;52.010;5.420;2022-10-16T08:48:20;101477.34;;;14.13;89.06
72110;BME280;59983;52.010;5.420;2022-10-16T08:50:52;101480.19;;;14.16;88.68
72110;BME280;59983;52.010;5.420;2022-10-16T08:53:26;101485.81;;;14.24;87.66
72110;BME280;59983;52.010;5.420;2022-10-16T08:55:54;101488.19;;;14.25;88.87
72110;BME280;59983;52.010;5.420;2022-10-16T08:58:25;101497.34;;;14.33;88.49
72110;BME280;59983;52.010;5.420;2022-10-16T09:00:58;101495.84;;;14.35;87.24
72110;BME280;59983;52.010;5.420;2022-10-16T09:03:54;101505.97;;;14.35;87.94
72110;BME280;59983;52.010;5.420;2022-10-16T09:12:19;101515.53;;;14.44;87.57
72110;BME280;59983;52.010;5.420;2022-10-16T09:20:17;101530.25;;;14.56;87.53
72110;BME280;59983;52.010;5.420;2022-10-16T09:22:45;101522.97;;;14.60;87.33
72110;BME280;59983;52.010;5.420;2022-10-16T09:25:15;101525.41;;;14.65;87.31
72110;BME280;59983;52.010;5.420;2022-10-16T09:27:44;101531.31;;;14.67;86.36
72110;BME280;59983;52.010;5.420;2022-10-16T09:30:19;101527.88;;;14.70;87.16
72110;BME280;59983;52.010;5.420;2022-10-16T09:32:49;101524.41;;;14.73;86.41
72110;BME280;59983;52.010;5.420;2022-10-16T09:35:22;101524.16;;;14.78;87.53
72110;BME280;59983;52.010;5.420;2022-10-16T09:37:53;101544.13;;;14.82;87.62
72110;BME280;59983;52.010;5.420;2022-10-16T09:45:29;101533.53;;;14.96;86.95
72110;BME280;59983;52.010;5.420;2022-10-16T09:47:55;101538.69;;;15.01;87.87
72110;BME280;59983;52.010;5.420;2022-10-16T09:50:28;101537.25;;;15.08;88.27
72110;BME280;59983;52.010;5.420;2022-10-16T09:53:11;101549.06;;;15.12;86.53
72110;BME280;59983;52.010;5.420;2022-10-16T09:55:52;101530.44;;;15.17;86.45
72110;BME280;59983;52.010;5.420;2022-10-16T09:58:22;101544.69;;;15.26;85.76
72110;BME280;59983;52.010;5.420;2022-10-16T10:00:51;101537.72;;;15.29;86.29
72110;BME280;59983;52.010;5.420;2022-10-16T10:03:42;101538.78;;;15.44;87.22
72110;BME280;59983;52.010;5.420;2022-10-16T10:06:27;101551.88;;;15.54;85.12
72110;BME280;59983;52.010;5.420;2022-10-16T10:09:42;101553.47;;;15.55;85.24
72110;BME280;59983;52.010;5.420;2022-10-16T10:12:03;101563.31;;;15.59;86.00
72110;BME280;59983;52.010;5.420;2022-10-16T10:14:41;101558.00;;;15.67;83.47
72110;BME280;59983;52.010;5.420;2022-10-16T10:17:22;101558.50;;;15.72;83.22
72110;BME280;59983;52.010;5.420;2022-10-16T10:19:57;101552.47;;;15.82;84.03
72110;BME280;59983;52.010;5.420;2022-10-16T10:22:41;101563.22;;;15.95;82.83
72110;BME280;59983;52.010;5.420;2022-10-16T10:33:24;101572.91;;;16.11;81.96
72110;BME280;59983;52.010;5.420;2022-10-16T10:38:37;101574.91;;;15.92;80.80
72110;BME280;59983;52.010;5.420;2022-10-16T10:46:56;101590.28;;;16.23;78.97
72110;BME280;59983;52.010;5.420;2022-10-16T10:49:42;101591.56;;;16.29;79.40
72110;BME280;59983;52.010;5.420;2022-10-16T11:00:50;101599.50;;;16.60;76.39
72110;BME280;59983;52.010;5.420;2022-10-16T11:03:45;101600.13;;;16.50;76.39
72110;BME280;59983;52.010;5.420;2022-10-16T11:06:32;101597.53;;;16.57;75.31
72110;BME280;59983;52.010;5.420;2022-10-16T11:09:13;101597.16;;;16.59;75.86
72110;BME280;59983;52.010;5.420;2022-10-16T11:11:45;101596.34;;;16.58;73.38
72110;BME280;59983;52.010;5.420;2022-10-16T11:14:30;101600.66;;;16.59;75.39
72110;BME280;59983;52.010;5.420;2022-10-16T11:17:23;101601.47;;;16.60;74.26
72110;BME280;59983;52.010;5.420;2022-10-16T11:20:02;101612.75;;;16.55;73.91
72110;BME280;59983;52.010;5.420;2022-10-16T11:22:43;101608.06;;;16.55;72.39
72110;BME280;59983;52.010;5.420;2022-10-16T11:25:20;101610.44;;;16.57;73.52
72110;BME280;59983;52.010;5.420;2022-10-16T11:30:29;101626.97;;;16.64;71.35
72110;BME280;59983;52.010;5.420;2022-10-16T11:35:39;101621.84;;;16.85;74.76
72110;BME280;59983;52.010;5.420;2022-10-16T11:40:48;101621.47;;;16.87;72.52
72110;BME280;59983;52.010;5.420;2022-10-16T11:43:24;101628.06;;;16.82;73.10
72110;BME280;59983;52.010;5.420;2022-10-16T11:45:54;101627.72;;;16.84;70.40
72110;BME280;59983;52.010;5.420;2022-10-16T11:48:26;101627.81;;;16.68;71.44
72110;BME280;59983;52.010;5.420;2022-10-16T11:51:06;101634.78;;;16.62;71.83
72110;BME280;59983;52.010;5.420;2022-10-16T11:53:50;101635.44;;;16.78;70.78
72110;BME280;59983;52.010;5.420;2022-10-16T11:56:20;101634.13;;;16.95;70.25
72110;BME280;59983;52.010;5.420;2022-10-16T11:58:57;101640.50;;;17.03;70.99
72110;BME280;59983;52.010;5.420;2022-10-16T12:01:35;101634.75;;;17.11;68.81
72110;BME280;59983;52.010;5.420;2022-10-16T12:06:47;101629.00;;;17.20;68.39
72110;BME280;59983;52.010;5.420;2022-10-16T12:09:45;101647.91;;;17.25;69.31
72110;BME280;59983;52.010;5.420;2022-10-16T12:12:37;101653.78;;;17.27;69.08
72110;BME280;59983;52.010;5.420;2022-10-16T12:15:25;101649.06;;;17.24;68.16
72110;BME280;59983;52.010;5.420;2022-10-16T12:18:24;101650.53;;;17.18;68.29
72110;BME280;59983;52.010;5.420;2022-10-16T12:20:58;101660.06;;;17.01;66.08
72110;BME280;59983;52.010;5.420;2022-10-16T12:23:32;101651.28;;;16.88;67.74
72110;BME280;59983;52.010;5.420;2022-10-16T12:26:00;101651.28;;;16.88;67.69
72110;BME280;59983;52.010;5.420;2022-10-16T12:28:31;101649.00;;;16.94;68.95
72110;BME280;59983;52.010;5.420;2022-10-16T12:31:03;101656.81;;;16.92;68.47
72110;BME280;59983;52.010;5.420;2022-10-16T12:33:36;101655.47;;;16.82;68.48
72110;BME280;59983;52.010;5.420;2022-10-16T12:36:27;101656.28;;;16.83;67.58
72110;BME280;59983;52.010;5.420;2022-10-16T12:38:54;101650.50;;;16.88;66.31
72110;BME280;59983;52.010;5.420;2022-10-16T12:41:32;101660.75;;;16.94;67.38
72110;BME280;59983;52.010;5.420;2022-10-16T12:43:59;101665.59;;;17.05;68.25
72110;BME280;59983;52.010;5.420;2022-10-16T12:51:35;101663.34;;;17.10;68.06
72110;BME280;59983;52.010;5.420;2022-10-16T12:54:38;101655.53;;;17.12;69.30
72110;BME280;59983;52.010;5.420;2022-10-16T13:00:13;101653.97;;;17.11;69.42
72110;BME280;59983;52.010;5.420;2022-10-16T13:03:00;101648.63;;;17.22;70.15
72110;BME280;59983;52.010;5.420;2022-10-16T13:16:29;101658.72;;;17.44;69.33
72110;BME280;59983;52.010;5.420;2022-10-16T13:22:10;101664.31;;;17.51;67.25
72110;BME280;59983;52.010;5.420;2022-10-16T13:24:48;101657.25;;;17.50;68.30
72110;BME280;59983;52.010;5.420;2022-10-16T13:30:30;101669.13;;;17.58;66.01
72110;BME280;59983;52.010;5.420;2022-10-16T13:33:07;101670.25;;;17.57;65.33
72110;BME280;59983;52.010;5.420;2022-10-16T13:35:36;101674.91;;;17.53;66.59
72110;BME280;59983;52.010;5.420;2022-10-16T13:38:13;101675.56;;;17.43;66.94
72110;BME280;59983;52.010;5.420;2022-10-16T13:40:59;101675.84;;;17.34;65.96
72110;BME280;59983;52.010;5.420;2022-10-16T13:43:33;101684.47;;;17.36;65.84
72110;BME280;59983;52.010;5.420;2022-10-16T13:46:02;101679.41;;;17.38;67.22
72110;BME280;59983;52.010;5.420;2022-10-16T13:48:29;101685.38;;;17.44;66.99
72110;BME280;59983;52.010;5.420;2022-10-16T13:53:37;101677.19;;;17.47;64.02
72110;BME280;59983;52.010;5.420;2022-10-16T13:56:12;101676.78;;;17.45;64.96
72110;BME280;59983;52.010;5.420;2022-10-16T13:58:40;101675.09;;;17.37;66.62
72110;BME280;59983;52.010;5.420;2022-10-16T14:01:19;101678.84;;;17.25;66.02
72110;BME280;59983;52.010;5.420;2022-10-16T14:03:47;101683.53;;;17.25;66.09
72110;BME280;59983;52.010;5.420;2022-10-16T14:06:16;101676.81;;;17.22;65.29
72110;BME280;59983;52.010;5.420;2022-10-16T14:09:26;101683.59;;;17.28;66.62
72110;BME280;59983;52.010;5.420;2022-10-16T14:12:02;101685.75;;;17.42;68.39
72110;BME280;59983;52.010;5.420;2022-10-16T14:14:39;101689.38;;;17.50;66.75
72110;BME280;59983;52.010;5.420;2022-10-16T14:17:13;101688.63;;;17.53;66.37
72110;BME280;59983;52.010;5.420;2022-10-16T14:19:40;101688.16;;;17.47;66.39
72110;BME280;59983;52.010;5.420;2022-10-16T14:24:49;101686.31;;;17.55;67.05
72110;BME280;59983;52.010;5.420;2022-10-16T14:27:33;101674.59;;;17.58;67.47
72110;BME280;59983;52.010;5.420;2022-10-16T14:32:41;101682.09;;;17.61;67.91
72110;BME280;59983;52.010;5.420;2022-10-16T14:35:29;101670.31;;;17.61;67.86
72110;BME280;59983;52.010;5.420;2022-10-16T14:37:56;101677.69;;;17.56;65.92
72110;BME280;59983;52.010;5.420;2022-10-16T14:40:26;101679.56;;;17.49;67.12
72110;BME280;59983;52.010;5.420;2022-10-16T14:42:53;101689.66;;;17.41;68.15
72110;BME280;59983;52.010;5.420;2022-10-16T14:45:26;101685.31;;;17.40;68.24
72110;BME280;59983;52.010;5.420;2022-10-16T14:47:58;101689.28;;;17.43;68.97
72110;BME280;59983;52.010;5.420;2022-10-16T14:50:26;101686.13;;;17.41;70.10
72110;BME280;59983;52.010;5.420;2022-10-16T14:52:53;101684.59;;;17.43;68.62
72110;BME280;59983;52.010;5.420;2022-10-16T14:55:19;101689.72;;;17.48;69.79
72110;BME280;59983;52.010;5.420;2022-10-16T14:57:46;101687.78;;;17.49;71.17
72110;BME280;59983;52.010;5.420;2022-10-16T15:00:18;101671.69;;;17.47;72.30
72110;BME280;59983;52.010;5.420;2022-10-16T15:02:47;101683.41;;;17.44;72.76